Time;durP1;ratioP1;P1;durP2;ratioP2;P2;SDS_P1;SDS_P2;PMS_P1;PMS_P2;Temp;Humidity;BMP_temperature;BMP_pressure;BME280_temperature;BME280_humidity;BME280_pressure;Samples;Min_cycle;Max_cycle;Signal;HPM_P1;HPM_P2
2023/10/20 00:00:27;;;;;;;16.60;12.10;;;;;;;15.44;93.83;98463.03;5081676;28;20056;-69
2023/10/20 00:02:52;;;;;;;14.98;11.45;;;;;;;15.45;93.73;98464.72;5081187;28;20032;-69
2023/10/20 00:05:17;;;;;;;15.27;11.63;;;;;;;15.45;94.13;98478.84;5081140;28;20039;-69
2023/10/20 00:07:43;;;;;;;16.17;11.68;;;;;;;15.46;93.97;98477.03;5082112;28;20036;-69
2023/10/20 00:10:12;;;;;;;19.35;11.43;;;;;;;15.44;93.68;98476.34;5084191;28;20028;-69
2023/10/20 00:12:38;;;;;;;15.57;11.43;;;;;;;15.44;93.98;98469.22;5085061;28;20475;-70
2023/10/20 00:15:05;;;;;;;15.95;11.05;;;;;;;15.47;93.88;98466.22;5083812;28;20523;-69
2023/10/20 00:17:30;;;;;;;16.25;11.70;;;;;;;15.47;94.38;98458.22;5083324;28;20059;-70
2023/10/20 00:19:56;;;;;;;16.67;11.77;;;;;;;15.48;94.05;98456.41;5081404;28;20451;-69
2023/10/20 00:22:21;;;;;;;15.50;11.50;;;;;;;15.48;94.23;98459.06;5084141;28;20388;-70
2023/10/20 00:24:46;;;;;;;16.65;11.85;;;;;;;15.46;94.54;98447.75;5076396;28;20032;-69
2023/10/20 00:27:13;;;;;;;15.57;10.68;;;;;;;15.44;94.21;98441.75;5081763;28;20016;-69
2023/10/20 00:29:40;;;;;;;17.77;12.80;;;;;;;15.41;94.73;98434.03;5084056;28;20024;-70
2023/10/20 00:32:06;;;;;;;15.85;12.20;;;;;;;15.40;94.54;98435.88;5084682;28;20020;-69
2023/10/20 00:34:32;;;;;;;14.68;11.90;;;;;;;15.41;94.69;98434.88;5081750;28;20036;-70
2023/10/20 00:36:57;;;;;;;23.80;11.70;;;;;;;15.40;94.53;98425.22;5080643;28;20032;-69
2023/10/20 00:39:23;;;;;;;16.98;12.63;;;;;;;15.40;94.79;98416.41;5080422;28;20020;-69
2023/10/20 00:41:48;;;;;;;17.40;13.18;;;;;;;15.39;94.22;98409.38;5083534;28;20243;-69
2023/10/20 00:44:14;;;;;;;17.05;11.73;;;;;;;15.39;94.32;98399.59;5082179;28;20115;-69
2023/10/20 00:46:43;;;;;;;17.42;12.32;;;;;;;15.38;94.09;98387.25;5083215;28;20016;-69
2023/10/20 00:49:10;;;;;;;17.13;12.10;;;;;;;15.37;94.08;98379.44;5083289;28;20158;-69
2023/10/20 00:51:36;;;;;;;18.48;13.30;;;;;;;15.36;94.02;98378.59;5082814;28;20032;-69
2023/10/20 00:54:02;;;;;;;17.27;12.93;;;;;;;15.37;94.39;98372.28;5075498;28;20028;-69
2023/10/20 00:56:29;;;;;;;15.88;11.77;;;;;;;15.32;93.60;98372.72;5083529;28;20105;-69
2023/10/20 00:58:54;;;;;;;15.10;11.82;;;;;;;15.32;94.09;98370.06;5080922;28;20024;-69
2023/10/20 01:01:20;;;;;;;17.48;12.55;;;;;;;15.34;94.48;98359.28;5080053;28;20044;-69
2023/10/20 01:03:45;;;;;;;21.98;12.65;;;;;;;15.31;94.44;98357.75;5079949;28;20048;-69
2023/10/20 01:06:10;;;;;;;19.15;13.63;;;;;;;15.30;94.27;98342.78;5079849;28;20028;-69
2023/10/20 01:08:36;;;;;;;18.35;13.52;;;;;;;15.31;94.26;98349.75;5079891;28;20024;-69
2023/10/20 01:11:01;;;;;;;17.77;11.98;;;;;;;15.30;94.34;98340.09;5081183;28;20687;-69
2023/10/20 01:13:27;;;;;;;17.23;12.50;;;;;;;15.31;94.44;98333.78;5079958;28;20036;-69
2023/10/20 01:15:53;;;;;;;19.40;13.02;;;;;;;15.31;94.75;98330.28;5078862;28;20012;-69
2023/10/20 01:18:19;;;;;;;16.17;12.95;;;;;;;15.30;94.21;98331.28;5077686;28;20032;-69
2023/10/20 01:20:45;;;;;;;20.88;12.68;;;;;;;15.30;94.44;98329.47;5082726;28;20017;-69
2023/10/20 01:23:10;;;;;;;19.75;13.77;;;;;;;15.30;94.48;98317.97;5082022;28;20081;-69
2023/10/20 01:25:36;;;;;;;19.13;13.05;;;;;;;15.27;94.49;98313.78;5075251;28;20090;-69
2023/10/20 01:28:01;;;;;;;16.38;12.98;;;;;;;15.27;94.64;98308.47;5082852;28;20036;-69
2023/10/20 01:30:26;;;;;;;19.92;13.07;;;;;;;15.28;94.30;98302.13;5080718;28;20058;-69
2023/10/20 01:32:52;;;;;;;16.90;12.68;;;;;;;15.26;94.01;98287.34;5079849;28;20537;-69
2023/10/20 01:35:17;;;;;;;19.08;13.05;;;;;;;15.26;94.53;98293.50;5079506;28;20103;-69
2023/10/20 01:37:43;;;;;;;17.25;13.30;;;;;;;15.27;94.76;98289.81;5079313;28;20051;-69
2023/10/20 01:40:12;;;;;;;19.38;13.93;;;;;;;15.28;94.35;98290.66;5079430;28;20021;-69
2023/10/20 01:42:38;;;;;;;18.00;12.98;;;;;;;15.27;94.37;98297.81;5081782;28;20036;-69
2023/10/20 01:45:05;;;;;;;17.73;14.35;;;;;;;15.29;94.55;98302.97;5088518;28;20027;-69
2023/10/20 01:47:30;;;;;;;23.23;14.60;;;;;;;15.27;94.69;98294.31;5082301;28;20456;-69
2023/10/20 01:49:56;;;;;;;19.80;13.23;;;;;;;15.28;94.98;98288.84;5079222;28;20020;-69
2023/10/20 01:52:21;;;;;;;27.08;15.00;;;;;;;15.26;94.92;98285.50;5079869;28;20097;-69
2023/10/20 01:54:46;;;;;;;20.27;13.90;;;;;;;15.27;95.04;98278.34;5079192;28;20292;-69
2023/10/20 01:57:12;;;;;;;19.77;13.30;;;;;;;15.27;94.56;98267.69;5079589;28;20016;-69
2023/10/20 01:59:37;;;;;;;21.27;14.25;;;;;;;15.27;94.71;98275.69;5079479;28;20028;-69
2023/10/20 02:02:03;;;;;;;19.92;15.10;;;;;;;15.27;94.41;98263.22;5082167;28;20101;-69
2023/10/20 02:04:29;;;;;;;20.80;13.77;;;;;;;15.26;94.56;98252.72;5082463;28;20125;-69
2023/10/20 02:06:54;;;;;;;19.90;13.77;;;;;;;15.27;94.80;98241.09;5081525;28;20475;-69
2023/10/20 02:09:20;;;;;;;21.00;14.50;;;;;;;15.26;94.47;98239.41;5078928;28;20062;-69
2023/10/20 02:11:46;;;;;;;18.73;13.02;;;;;;;15.26;94.26;98234.09;5079045;28;20032;-69
2023/10/20 02:14:11;;;;;;;18.35;12.85;;;;;;;15.24;94.67;98231.56;5079016;28;20056;-69
2023/10/20 02:16:36;;;;;;;19.75;12.75;;;;;;;15.24;94.41;98222.75;5079177;28;20044;-69
2023/10/20 02:19:04;;;;;;;20.20;13.52;;;;;;;15.22;94.78;98233.56;5081574;28;20241;-69
2023/10/20 02:21:30;;;;;;;21.40;13.15;;;;;;;15.21;94.62;98233.72;5078951;28;20024;-69
2023/10/20 02:23:55;;;;;;;17.67;12.95;;;;;;;15.22;94.61;98228.25;5079039;28;20028;-69
2023/10/20 02:26:21;;;;;;;16.95;12.52;;;;;;;15.22;94.45;98228.25;5078721;28;20497;-69
2023/10/20 02:28:47;;;;;;;17.20;12.93;;;;;;;15.22;95.00;98217.59;5078664;28;20020;-68
2023/10/20 02:31:14;;;;;;;17.25;12.90;;;;;;;15.22;94.82;98204.28;5079142;28;20429;-69
2023/10/20 02:33:40;;;;;;;18.80;13.15;;;;;;;15.22;94.61;98203.44;5079187;28;20029;-69
2023/10/20 02:36:05;;;;;;;15.57;12.27;;;;;;;15.21;94.83;98201.78;5077260;28;20028;-69
2023/10/20 02:38:31;;;;;;;18.60;12.65;;;;;;;15.22;94.27;98192.81;5080079;28;20055;-69
2023/10/20 02:40:56;;;;;;;18.27;12.95;;;;;;;15.20;94.66;98190.31;5078518;28;20024;-69
2023/10/20 02:43:22;;;;;;;20.52;13.15;;;;;;;15.19;94.67;98177.97;5078795;28;20491;-70
2023/10/20 02:45:52;;;;;;;21.38;13.32;;;;;;;15.19;94.41;98169.97;5086825;28;20465;-70
2023/10/20 02:48:18;;;;;;;21.08;13.32;;;;;;;15.18;94.45;98163.00;5078318;28;20054;-69
2023/10/20 02:50:43;;;;;;;17.13;12.50;;;;;;;15.18;94.54;98165.66;5080279;28;20149;-70
2023/10/20 02:53:09;;;;;;;20.30;12.95;;;;;;;15.17;94.16;98161.34;5076441;28;20115;-69
2023/10/20 02:55:34;;;;;;;18.63;12.95;;;;;;;15.18;94.58;98154.19;5078435;28;20028;-69
2023/10/20 02:58:03;;;;;;;17.13;12.70;;;;;;;15.16;94.36;98146.38;5081507;28;20103;-70
2023/10/20 03:00:28;;;;;;;20.98;13.27;;;;;;;15.15;94.11;98142.00;5081361;28;20032;-70
2023/10/20 03:02:53;;;;;;;20.15;13.27;;;;;;;15.14;94.23;98145.66;5079944;28;20521;-69
2023/10/20 03:05:22;;;;;;;18.42;13.15;;;;;;;15.10;94.58;98138.97;5077946;28;20064;-69
2023/10/20 03:07:47;;;;;;;20.15;12.45;;;;;;;15.15;94.09;98131.38;5079086;28;20051;-69
2023/10/20 03:10:13;;;;;;;19.33;14.23;;;;;;;15.17;94.14;98113.44;5081622;28;20103;-69
2023/10/20 03:12:39;;;;;;;18.25;13.20;;;;;;;15.17;93.86;98100.13;5081915;28;20482;-69
2023/10/20 03:15:08;;;;;;;19.40;13.73;;;;;;;15.18;93.78;98106.28;5073012;28;20082;-69
2023/10/20 03:17:36;;;;;;;19.25;13.90;;;;;;;15.19;93.67;98098.13;5078961;28;20132;-69
2023/10/20 03:20:12;;;;;;;19.23;12.75;;;;;;;15.21;93.36;98113.97;5078323;28;20111;-69
2023/10/20 03:22:40;;;;;;;18.88;12.93;;;;;;;15.22;93.25;98115.63;5082263;28;20054;-70
2023/10/20 03:25:07;;;;;;;18.40;13.18;;;;;;;15.22;93.12;98116.44;5081153;28;20467;-69
2023/10/20 03:27:33;;;;;;;19.17;12.93;;;;;;;15.20;93.24;98109.59;5078286;28;20035;-69
2023/10/20 03:29:58;;;;;;;20.17;13.65;;;;;;;15.19;93.32;98100.78;5078046;28;20104;-69
2023/10/20 03:32:24;;;;;;;16.73;13.45;;;;;;;15.21;92.95;98105.97;5080385;28;20044;-69
2023/10/20 03:34:49;;;;;;;20.67;13.68;;;;;;;15.20;92.77;98091.84;5076205;28;20037;-69
2023/10/20 03:37:15;;;;;;;20.63;13.63;;;;;;;15.22;93.02;98091.66;5078362;28;20021;-69
2023/10/20 03:39:41;;;;;;;18.88;13.00;;;;;;;15.24;92.98;98079.03;5082315;28;20487;-69
2023/10/20 03:42:07;;;;;;;19.70;13.63;;;;;;;15.25;93.02;98072.72;5085440;28;20028;-69
2023/10/20 03:44:33;;;;;;;18.40;12.80;;;;;;;15.26;92.60;98069.91;5077194;28;20035;-69
2023/10/20 03:46:59;;;;;;;18.17;13.00;;;;;;;15.24;92.64;98077.19;5082147;28;20020;-69
2023/10/20 03:49:26;;;;;;;18.60;12.68;;;;;;;15.02;93.56;98077.75;5081462;28;20040;-69
2023/10/20 03:51:51;;;;;;;20.33;13.20;;;;;;;14.88;94.65;98081.84;5083476;28;20036;-70
2023/10/20 03:54:18;;;;;;;20.95;13.40;;;;;;;14.86;95.17;98075.81;5081284;28;20123;-69
2023/10/20 03:56:44;;;;;;;20.25;13.63;;;;;;;14.84;95.61;98067.16;5082865;28;20039;-69
2023/10/20 03:59:16;;;;;;;18.38;12.75;;;;;;;14.83;95.90;98052.22;5084719;28;20460;-69
2023/10/20 04:01:43;;;;;;;18.52;13.85;;;;;;;14.82;95.40;98047.84;5084011;28;20129;-69
2023/10/20 04:04:10;;;;;;;19.65;14.32;;;;;;;14.82;95.56;98057.66;5080976;28;20072;-69
2023/10/20 04:06:39;;;;;;;21.80;13.20;;;;;;;14.82;95.87;98062.97;5081233;28;20037;-69
2023/10/20 04:09:09;;;;;;;20.20;13.27;;;;;;;14.83;96.11;98060.19;5083633;28;20039;-69
2023/10/20 04:11:35;;;;;;;19.42;12.80;;;;;;;14.83;95.85;98054.00;5084586;28;20081;-69
2023/10/20 04:14:02;;;;;;;22.58;13.57;;;;;;;14.83;95.88;98038.03;5082078;28;20495;-69
2023/10/20 04:16:28;;;;;;;20.42;13.18;;;;;;;14.83;95.96;98022.09;5081249;28;20544;-69
2023/10/20 04:18:54;;;;;;;19.15;13.98;;;;;;;14.82;95.69;98023.91;5084087;28;20031;-69
2023/10/20 04:21:19;;;;;;;19.13;14.00;;;;;;;14.83;95.93;98019.44;5081483;28;20040;-69
2023/10/20 04:23:44;;;;;;;21.42;14.05;;;;;;;14.80;95.78;98018.75;5081054;28;20020;-69
2023/10/20 04:26:20;;;;;;;21.30;14.52;;;;;;;14.82;96.05;98001.81;5080870;28;20106;-69
2023/10/20 04:28:47;;;;;;;18.90;13.35;;;;;;;14.82;95.88;98004.47;5081007;28;20039;-70
2023/10/20 04:58:11;;;;;;;21.80;15.20;;;;;;;14.79;96.07;97929.34;5073012;28;20449;-69
2023/10/20 05:00:37;;;;;;;24.38;15.35;;;;;;;14.79;95.94;97924.00;5082282;28;20361;-69
2023/10/20 05:05:39;;;;;;;23.48;16.10;;;;;;;14.78;96.28;97924.16;5083258;28;20051;-69
2023/10/20 05:08:05;;;;;;;24.63;15.93;;;;;;;14.78;95.81;97911.72;5073812;28;20028;-69
2023/10/20 05:10:31;;;;;;;25.38;16.30;;;;;;;14.77;95.91;97896.72;5080187;28;20036;-69
2023/10/20 05:12:57;;;;;;;23.08;16.67;;;;;;;14.78;95.86;97892.25;5083435;28;20031;-69
2023/10/20 05:15:23;;;;;;;24.42;17.25;;;;;;;14.78;95.95;97895.75;5075641;28;20032;-69
2023/10/20 05:17:52;;;;;;;23.85;17.02;;;;;;;14.74;96.99;97897.06;5088150;28;20020;-69
2023/10/20 05:20:20;;;;;;;24.67;17.98;;;;;;;14.78;96.04;97897.56;5079898;28;20024;-69
2023/10/20 05:22:46;;;;;;;27.58;18.15;;;;;;;14.78;96.17;97890.44;5079802;28;20492;-69
2023/10/20 05:25:12;;;;;;;27.75;18.10;;;;;;;14.80;96.08;97879.63;5082147;28;20028;-69
2023/10/20 05:27:41;;;;;;;24.75;17.65;;;;;;;14.80;96.43;97879.63;5083159;28;20055;-69
2023/10/20 05:30:07;;;;;;;28.10;17.55;;;;;;;14.79;96.29;97873.47;5081351;28;20522;-69
2023/10/20 05:32:34;;;;;;;24.27;17.77;;;;;;;14.78;96.41;97870.97;5080201;28;20515;-69
2023/10/20 05:34:59;;;;;;;29.27;20.15;;;;;;;14.79;96.52;97877.97;5079582;28;20369;-69
2023/10/20 05:37:27;;;;;;;25.13;18.38;;;;;;;14.80;95.96;97892.94;5080050;28;20028;-69
2023/10/20 05:39:53;;;;;;;28.23;19.95;;;;;;;14.80;96.12;97890.28;5079138;28;20080;-69
2023/10/20 05:42:18;;;;;;;28.55;19.48;;;;;;;14.80;95.99;97899.06;5081803;28;20028;-69
2023/10/20 05:44:48;;;;;;;26.88;19.88;;;;;;;14.82;95.96;97908.72;5080323;28;20123;-69
2023/10/20 05:47:14;;;;;;;28.58;19.33;;;;;;;14.79;96.40;97897.41;5082348;28;20356;-69
2023/10/20 05:49:39;;;;;;;27.20;18.92;;;;;;;14.81;96.38;97873.31;5079083;28;20244;-69
2023/10/20 05:52:05;;;;;;;27.17;19.38;;;;;;;14.81;95.85;97873.31;5079250;28;20025;-69
2023/10/20 05:54:31;;;;;;;27.83;18.13;;;;;;;14.83;95.82;97879.31;5077929;28;20371;-69
2023/10/20 05:56:56;;;;;;;29.38;18.98;;;;;;;14.84;96.07;97875.66;5079410;28;20025;-69
2023/10/20 05:59:22;;;;;;;25.92;18.63;;;;;;;14.82;96.42;97871.47;5079279;28;20517;-69
2023/10/20 06:01:47;;;;;;;27.52;18.60;;;;;;;14.80;96.27;97864.50;5082331;28;20576;-69
2023/10/20 06:04:12;;;;;;;24.48;18.25;;;;;;;14.81;96.29;97868.00;5082020;28;20115;-69
2023/10/20 06:06:39;;;;;;;22.83;17.13;;;;;;;14.78;95.67;97858.53;5079480;28;20474;-70
2023/10/20 06:09:06;;;;;;;25.08;18.15;;;;;;;14.79;96.28;97854.88;5078947;28;20021;-69
2023/10/20 06:11:31;;;;;;;25.58;18.67;;;;;;;14.77;96.00;97854.19;5079063;28;20536;-70
2023/10/20 06:13:56;;;;;;;25.50;17.95;;;;;;;14.78;96.29;97847.88;5082099;28;20131;-69
2023/10/20 06:16:24;;;;;;;24.25;17.80;;;;;;;14.78;96.35;97844.38;5078892;28;20486;-69
2023/10/20 06:18:49;;;;;;;25.30;18.17;;;;;;;14.76;96.25;97857.84;5081515;28;20029;-70
2023/10/20 06:21:16;;;;;;;24.92;17.77;;;;;;;14.75;96.27;97869.47;5082275;28;20185;-69
2023/10/20 06:23:42;;;;;;;25.13;17.73;;;;;;;14.74;96.45;97865.16;5079972;28;20047;-70
2023/10/20 06:26:07;;;;;;;23.65;17.48;;;;;;;14.75;96.52;97869.47;5082608;28;20028;-70
2023/10/20 06:28:33;;;;;;;23.95;18.35;;;;;;;14.76;96.78;97852.53;5079232;28;20479;-70
2023/10/20 06:31:15;;;;;;;24.40;17.75;;;;;;;14.75;96.96;97839.41;5079571;28;20040;-70
2023/10/20 06:33:43;;;;;;;25.67;18.00;;;;;;;14.85;96.88;97847.22;5082175;28;20030;-70
2023/10/20 06:36:11;;;;;;;28.17;19.58;;;;;;;14.74;96.94;97838.56;5073114;28;20024;-70
2023/10/20 06:41:04;;;;;;;26.00;18.65;;;;;;;14.76;97.32;97857.00;5082171;28;20035;-70
2023/10/20 06:43:29;;;;;;;27.23;19.48;;;;;;;14.75;97.17;97860.66;5070614;28;20051;-70
2023/10/20 06:45:59;;;;;;;27.33;20.05;;;;;;;14.76;97.46;97857.84;5078166;28;20063;-70
2023/10/20 06:48:26;;;;;;;27.55;19.88;;;;;;;14.76;97.47;97844.53;5079644;28;20054;-70
2023/10/20 06:50:51;;;;;;;27.15;20.33;;;;;;;14.76;97.41;97841.88;5078508;28;20024;-70
2023/10/20 06:53:17;;;;;;;26.73;19.65;;;;;;;14.75;97.85;97834.91;5082701;28;20111;-70
2023/10/20 06:55:43;;;;;;;25.77;19.55;;;;;;;14.75;97.71;97828.75;5070968;28;20024;-70
2023/10/20 06:58:09;;;;;;;27.88;20.38;;;;;;;14.75;97.80;97828.75;5078439;28;20067;-70
2023/10/20 07:00:35;;;;;;;25.13;19.15;;;;;;;14.74;98.15;97830.59;5080309;28;20033;-70
2023/10/20 07:03:01;;;;;;;27.95;20.20;;;;;;;14.74;98.43;97827.09;5081676;28;20070;-70
2023/10/20 07:05:26;;;;;;;24.77;19.55;;;;;;;14.73;98.67;97825.41;5073219;28;20052;-70
2023/10/20 07:07:51;;;;;;;27.65;19.98;;;;;;;14.71;98.81;97822.91;5081613;28;20475;-70
2023/10/20 07:10:18;;;;;;;24.98;18.42;;;;;;;14.70;99.04;97826.59;5081882;28;20536;-70
2023/10/20 07:12:44;;;;;;;26.15;19.23;;;;;;;14.70;99.20;97823.91;5080422;28;20039;-70
2023/10/20 07:15:09;;;;;;;24.83;18.48;;;;;;;14.70;99.05;97825.75;5078772;28;20028;-70
2023/10/20 07:17:35;;;;;;;25.10;17.98;;;;;;;14.69;99.35;97822.25;5089633;28;20032;-69
2023/10/20 07:20:01;;;;;;;24.10;17.77;;;;;;;14.68;99.72;97833.88;5082944;28;20040;-68
2023/10/20 07:22:28;;;;;;;22.08;17.63;;;;;;;14.65;99.74;97836.03;5082337;28;20024;-69
2023/10/20 07:24:55;;;;;;;27.33;16.95;;;;;;;14.61;100.00;97827.53;5085438;28;20067;-68
2023/10/20 07:27:22;;;;;;;26.73;18.42;;;;;;;14.61;100.00;97822.22;5082107;28;20111;-68
2023/10/20 07:29:47;;;;;;;26.15;18.20;;;;;;;14.60;100.00;97817.09;5082006;28;20062;-68
2023/10/20 07:32:13;;;;;;;22.77;16.73;;;;;;;14.59;100.00;97815.41;5084729;28;20115;-68
2023/10/20 07:34:38;;;;;;;23.58;15.43;;;;;;;14.57;100.00;97815.56;5083679;28;20479;-68
2023/10/20 07:37:03;;;;;;;23.25;16.45;;;;;;;14.53;100.00;97817.69;5081794;28;20032;-68
2023/10/20 07:39:28;;;;;;;21.58;15.35;;;;;;;14.54;100.00;97821.19;5081975;28;20071;-68
2023/10/20 07:41:54;;;;;;;20.63;14.73;;;;;;;14.52;100.00;97823.19;5081899;28;20039;-68
2023/10/20 07:44:19;;;;;;;20.85;15.25;;;;;;;14.54;100.00;97826.50;5083569;28;20035;-69
2023/10/20 07:46:45;;;;;;;19.02;14.80;;;;;;;14.52;100.00;97812.56;5078937;28;20557;-69
2023/10/20 07:49:13;;;;;;;21.38;14.45;;;;;;;14.50;100.00;97812.72;5084761;28;20035;-69
2023/10/20 07:51:39;;;;;;;19.40;13.85;;;;;;;14.49;100.00;97818.19;5074058;28;20561;-69
2023/10/20 07:54:08;;;;;;;18.17;12.90;;;;;;;14.48;100.00;97811.22;5080229;28;20046;-69
2023/10/20 07:56:34;;;;;;;17.42;13.40;;;;;;;14.47;100.00;97804.22;5082517;28;20047;-68
2023/10/20 07:58:59;;;;;;;16.30;12.27;;;;;;;14.44;100.00;97804.50;5081351;28;20464;-69
2023/10/20 08:01:25;;;;;;;17.20;12.98;;;;;;;14.45;100.00;97796.38;5081848;28;20074;-69
2023/10/20 08:03:52;;;;;;;16.83;13.05;;;;;;;14.49;100.00;97783.63;5084251;28;20051;-70
2023/10/20 08:06:18;;;;;;;16.98;12.10;;;;;;;14.45;100.00;97780.41;5084404;28;20035;-69
2023/10/20 08:08:44;;;;;;;16.77;11.77;;;;;;;14.41;100.00;97772.94;5082205;28;20032;-69
2023/10/20 08:11:09;;;;;;;15.68;12.32;;;;;;;14.39;100.00;97783.72;5081365;28;20023;-69
2023/10/20 08:13:35;;;;;;;16.38;11.05;;;;;;;14.37;100.00;97783.06;5080997;28;20028;-69
2023/10/20 08:16:03;;;;;;;14.95;10.52;;;;;;;14.36;100.00;97786.72;5067982;28;20035;-68
2023/10/20 08:18:33;;;;;;;17.17;11.13;;;;;;;14.36;100.00;97793.84;5085259;28;20040;-68
2023/10/20 08:21:07;;;;;;;16.02;10.20;;;;;;;14.57;100.00;97783.66;5083271;28;20032;-68
2023/10/20 08:23:32;;;;;;;13.52;10.00;;;;;;;14.52;100.00;97786.81;5082330;28;20487;-67
2023/10/20 08:25:58;;;;;;;13.90;10.48;;;;;;;14.51;100.00;97787.81;5090181;28;20027;-69
2023/10/20 08:28:25;;;;;;;13.45;10.13;;;;;;;14.55;99.78;97788.31;5084290;28;20365;-69
2023/10/20 08:30:50;;;;;;;14.50;10.27;;;;;;;14.54;99.85;97784.81;5083816;28;20036;-70
2023/10/20 08:33:15;;;;;;;12.48;9.23;;;;;;;14.50;99.90;97787.94;5081142;28;20106;-69
2023/10/20 08:35:41;;;;;;;15.45;9.60;;;;;;;14.48;100.00;97788.13;5085319;28;20020;-70
2023/10/20 08:38:07;;;;;;;13.60;9.13;;;;;;;14.44;99.67;97789.41;5082893;28;20113;-70
2023/10/20 08:40:35;;;;;;;11.52;8.35;;;;;;;14.41;100.00;97788.88;5080372;28;20456;-70
2023/10/20 08:43:02;;;;;;;12.80;8.18;;;;;;;14.29;100.00;97788.34;5080649;28;20073;-69
2023/10/20 08:45:31;;;;;;;8.68;7.18;;;;;;;14.36;100.00;97776.09;5083319;28;20024;-69
2023/10/20 08:47:57;;;;;;;11.52;9.15;;;;;;;14.34;99.64;97775.41;5080547;28;20558;-69
2023/10/20 08:50:29;;;;;;;11.65;7.90;;;;;;;14.33;99.84;97772.94;5080527;28;20028;-71
2023/10/20 08:52:56;;;;;;;10.23;7.57;;;;;;;14.33;99.30;97773.75;5077727;28;20028;-69
2023/10/20 08:55:22;;;;;;;12.13;7.47;;;;;;;14.27;99.15;97785.88;5080105;28;20028;-69
2023/10/20 08:57:47;;;;;;;8.32;6.38;;;;;;;14.27;99.23;97787.69;5080268;28;20028;-69
2023/10/20 09:00:20;;;;;;;8.52;6.80;;;;;;;14.23;98.97;97781.84;5080241;28;20122;-69
2023/10/20 09:02:46;;;;;;;9.00;5.13;;;;;;;14.20;98.86;97779.50;5071940;28;20024;-69
2023/10/20 09:05:19;;;;;;;6.90;5.30;;;;;;;14.00;99.78;97783.41;5079718;28;20048;-69
2023/10/20 09:07:53;;;;;;;6.80;5.13;;;;;;;13.95;99.93;97789.19;5082420;28;20472;-69
2023/10/20 09:10:18;;;;;;;7.50;4.95;;;;;;;13.95;99.62;97786.53;5083481;28;20041;-69
2023/10/20 09:12:43;;;;;;;4.85;4.22;;;;;;;13.99;99.58;97787.06;5081942;28;20032;-69
2023/10/20 09:15:11;;;;;;;4.88;4.25;;;;;;;14.01;99.48;97785.91;5080124;28;20028;-69
2023/10/20 09:17:36;;;;;;;4.50;3.78;;;;;;;14.01;98.56;97788.56;5088278;28;20114;-69
2023/10/20 09:20:12;;;;;;;5.05;3.45;;;;;;;14.03;98.88;97783.06;5080001;28;20195;-69
2023/10/20 09:22:38;;;;;;;3.40;3.10;;;;;;;14.05;98.01;97781.09;5080221;28;20024;-69
2023/10/20 09:25:10;;;;;;;3.85;3.10;;;;;;;14.06;98.37;97766.81;5085879;28;20154;-69
2023/10/20 09:27:38;;;;;;;3.15;2.85;;;;;;;14.05;97.74;97773.13;5080042;28;20032;-69
2023/10/20 09:30:08;;;;;;;4.07;2.88;;;;;;;14.05;98.16;97767.81;5081742;28;20511;-69
2023/10/20 09:32:35;;;;;;;2.90;2.55;;;;;;;14.06;97.66;97774.78;5083215;28;20032;-69
2023/10/20 09:35:01;;;;;;;3.42;2.83;;;;;;;14.07;97.05;97776.44;5081907;28;20518;-69
2023/10/20 09:37:29;;;;;;;3.17;2.63;;;;;;;14.09;97.32;97787.78;5079335;28;20032;-69
2023/10/20 09:40:05;;;;;;;3.58;2.45;;;;;;;14.11;96.93;97784.94;5079454;28;20111;-69
2023/10/20 09:42:40;;;;;;;3.25;2.70;;;;;;;14.08;96.66;97778.09;5072299;28;20028;-69
2023/10/20 09:45:14;;;;;;;2.97;2.70;;;;;;;14.11;96.57;97771.66;5084255;28;20039;-69
2023/10/20 09:47:43;;;;;;;2.70;2.50;;;;;;;14.02;96.78;97771.63;5079233;28;20028;-69
2023/10/20 09:50:11;;;;;;;3.40;2.83;;;;;;;13.87;97.27;97767.06;5079025;28;20532;-69
2023/10/20 09:52:39;;;;;;;2.72;2.53;;;;;;;13.85;97.96;97766.38;5071037;28;20027;-69
2023/10/20 09:55:06;;;;;;;2.63;2.42;;;;;;;13.84;97.89;97772.69;5082015;28;20062;-69
2023/10/20 09:57:32;;;;;;;3.92;2.60;;;;;;;13.86;98.06;97762.75;5079351;28;20039;-69
2023/10/20 09:59:57;;;;;;;2.90;2.70;;;;;;;13.86;98.01;97762.75;5079097;28;20032;-69
2023/10/20 10:02:30;;;;;;;2.65;2.30;;;;;;;13.96;97.16;97763.47;5077868;28;20100;-69
2023/10/20 10:05:00;;;;;;;3.17;2.30;;;;;;;13.88;97.71;97771.38;5081991;28;20052;-69
2023/10/20 10:07:32;;;;;;;2.42;2.22;;;;;;;13.88;97.48;97771.38;5079131;28;20036;-69
2023/10/20 10:10:00;;;;;;;2.92;2.72;;;;;;;13.91;97.51;97768.41;5071214;28;20028;-69
2023/10/20 10:12:28;;;;;;;2.67;2.47;;;;;;;13.94;97.59;97776.06;5079166;28;20082;-69
2023/10/20 10:15:13;;;;;;;3.65;2.67;;;;;;;13.95;97.92;97767.13;5081680;28;20036;-69
2023/10/20 10:17:52;;;;;;;2.80;2.53;;;;;;;13.98;97.74;97764.94;5085561;28;20027;-69
2023/10/20 10:20:27;;;;;;;2.65;2.45;;;;;;;14.01;98.14;97767.31;5079854;28;20016;-69
2023/10/20 10:23:05;;;;;;;2.90;2.65;;;;;;;14.06;98.15;97750.88;5081300;28;20166;-69
2023/10/20 10:25:39;;;;;;;2.90;2.40;;;;;;;14.04;97.63;97750.22;5081054;28;20322;-69
2023/10/20 10:28:31;;;;;;;2.85;2.65;;;;;;;14.25;96.73;97741.81;5081938;28;20085;-69
2023/10/20 10:30:56;;;;;;;2.90;2.58;;;;;;;14.24;96.36;97751.63;5079933;28;20047;-69
2023/10/20 10:33:23;;;;;;;2.55;2.45;;;;;;;14.24;96.22;97745.50;5079567;28;20380;-69
2023/10/20 10:35:49;;;;;;;3.00;2.80;;;;;;;14.28;95.94;97745.00;5078658;28;20021;-70
2023/10/20 10:38:21;;;;;;;2.80;2.60;;;;;;;14.28;96.00;97731.72;5078746;28;20032;-69
2023/10/20 10:40:47;;;;;;;2.65;2.45;;;;;;;14.30;95.96;97737.69;5078422;28;20036;-69
2023/10/20 10:43:18;;;;;;;2.72;2.53;;;;;;;14.33;96.17;97730.41;5080370;28;20491;-69
2023/10/20 10:45:44;;;;;;;3.10;2.60;;;;;;;14.32;95.81;97724.25;5081473;28;20054;-69
2023/10/20 10:48:15;;;;;;;2.65;2.40;;;;;;;14.33;95.72;97717.94;5079189;28;20028;-69
2023/10/20 10:50:42;;;;;;;4.00;2.50;;;;;;;14.31;95.21;97717.25;5084286;28;20114;-69
2023/10/20 10:53:08;;;;;;;3.05;2.70;;;;;;;14.27;95.10;97719.44;5078007;28;20032;-69
2023/10/20 10:55:35;;;;;;;3.05;2.65;;;;;;;14.29;95.46;97713.94;5082826;28;20215;-70
2023/10/20 10:58:02;;;;;;;3.22;2.58;;;;;;;14.29;95.75;97716.59;5081537;28;20073;-69
2023/10/20 11:00:28;;;;;;;3.00;2.70;;;;;;;14.25;95.43;97709.94;5085454;28;20028;-69
2023/10/20 11:02:56;;;;;;;3.10;2.80;;;;;;;14.23;96.55;97699.47;5083438;28;20407;-69
2023/10/20 11:05:21;;;;;;;3.20;3.00;;;;;;;14.25;96.39;97697.47;5082863;28;20087;-68
2023/10/20 11:08:02;;;;;;;3.67;2.92;;;;;;;14.32;95.71;97688.88;5084471;28;20036;-68
2023/10/20 11:10:28;;;;;;;3.47;3.05;;;;;;;14.34;96.11;97678.91;5086188;28;20479;-68
2023/10/20 11:13:05;;;;;;;3.50;3.20;;;;;;;14.35;96.62;97662.78;5083086;28;20383;-68
2023/10/20 11:15:32;;;;;;;4.00;3.70;;;;;;;14.41;96.44;97658.66;5082531;28;20032;-68
2023/10/20 11:18:02;;;;;;;5.00;3.78;;;;;;;14.46;96.27;97674.97;5091013;28;20025;-69
2023/10/20 11:20:31;;;;;;;3.75;3.55;;;;;;;14.40;95.74;97660.47;5082441;28;20029;-69
2023/10/20 11:22:57;;;;;;;4.82;4.50;;;;;;;14.41;95.97;97662.16;5084212;28;20103;-69
2023/10/20 11:25:23;;;;;;;4.57;4.28;;;;;;;14.40;95.84;97662.31;5086343;28;20119;-69
2023/10/20 11:27:55;;;;;;;4.72;4.43;;;;;;;14.41;95.84;97650.66;5081865;28;20587;-70
2023/10/20 11:30:28;;;;;;;4.90;4.40;;;;;;;14.45;95.98;97659.97;5085751;28;20062;-69
2023/10/20 11:32:54;;;;;;;4.97;4.68;;;;;;;14.45;95.89;97652.84;5085022;28;20043;-69
2023/10/20 11:35:24;;;;;;;5.28;4.88;;;;;;;14.56;94.94;97656.22;5082431;28;20480;-70
2023/10/20 11:37:51;;;;;;;5.75;5.32;;;;;;;14.50;95.84;97655.03;5082539;28;20470;-69
2023/10/20 11:40:16;;;;;;;6.60;5.75;;;;;;;14.51;95.51;97643.44;5085107;28;20024;-69
2023/10/20 11:42:42;;;;;;;5.95;5.45;;;;;;;14.53;95.79;97644.09;5085883;28;20043;-69
2023/10/20 11:45:08;;;;;;;6.05;5.57;;;;;;;14.58;95.54;97652.38;5080497;28;20027;-69
2023/10/20 11:47:33;;;;;;;6.35;5.85;;;;;;;14.61;95.51;97635.28;5078485;28;20032;-69
2023/10/20 11:49:59;;;;;;;7.05;6.38;;;;;;;14.66;95.77;97638.28;5085161;28;20020;-70
2023/10/20 11:52:24;;;;;;;9.85;6.07;;;;;;;14.66;94.89;97627.66;5080397;28;20116;-69